Pagina principale
METAR-TAF:

METAR-TAF

Aeroporti :

Ocala International Airport (Jim Taylor Field)

Ocala, Florida, Stati Uniti

latitudine: 29-10N, longitudine: 082-13W, altezza: 27 m

Osservazione

Il bollettino è stato emesso 20 minuti fa, alle 13:51 UTC
Vento 5 kt da nord
Temperature 11°C
Umidità 82%
Pressione 1017 hPa
Visibilità: 16.1 km
Cielo sereno

METAR: KOCF 281351Z 01005KT 10SM CLR 11/08 A3004 RMK AO2 SLP173 T01060078 $

Ora: 09:11 (14:11 UTC)


TAF: mancante

Osservazioni e previsioni meteorologiche di più di 4000 aeroporti (messaggi METAR e TAF).

Le stazioni disponibili sono rappresentate dai dischi gialli e rossi sulla carta.

Puntare il mouse per vedere il nome della stazione.

Clicca sopra per visualizzare le osservazioni e previsioni meteorologiche.

Per cambiare la mappa : fare clic sui pulsanti verdi con una croce nera per ingrandire, il pulsante verde con un trattino per diminuire, o sulla freccia verde per le mappe adiacenti.


METAR-TAF: